Time;durP1;ratioP1;P1;durP2;ratioP2;P2;SDS_P1;SDS_P2;PMS_P1;PMS_P2;Temp;Humidity;BMP_temperature;BMP_pressure;BME280_temperature;BME280_humidity;BME280_pressure;Samples;Min_cycle;Max_cycle;Signal;HPM_P1;HPM_P2
2022/06/10 00:01:15;;;;;;;;;;;17.20;73.20;;;;;;5036332;28;19932;-75
2022/06/10 00:03:42;;;;;;;;;;;17.20;73.10;;;;;;5037959;28;21062;-77
2022/06/10 00:06:09;;;;;;;;;;;17.20;73.10;;;;;;5044418;28;19975;-77
2022/06/10 00:08:37;;;;;;;;;;;17.20;73.20;;;;;;5045135;28;20016;-76
2022/06/10 00:11:07;;;;;;;;;;;17.10;73.40;;;;;;5044039;28;19943;-76
2022/06/10 00:13:36;;;;;;;;;;;17.10;73.50;;;;;;5049430;28;19933;-76
2022/06/10 00:16:02;;;;;;;;;;;17.00;73.60;;;;;;5043870;28;19959;-78
2022/06/10 00:18:30;;;;;;;;;;;17.00;73.70;;;;;;5042469;28;19929;-78
2022/06/10 00:20:57;;;;;;;;;;;17.00;73.60;;;;;;5044191;28;19929;-78
2022/06/10 00:23:24;;;;;;;;;;;17.00;73.70;;;;;;5046652;28;19933;-74
2022/06/10 00:25:50;;;;;;;;;;;17.00;73.80;;;;;;5044167;28;19925;-77
2022/06/10 00:28:19;;;;;;;;;;;16.90;73.90;;;;;;5044989;28;19935;-75
2022/06/10 00:30:45;;;;;;;;;;;16.90;74.00;;;;;;5039185;28;19983;-75
2022/06/10 00:33:12;;;;;;;;;;;16.90;74.10;;;;;;5045424;28;19933;-75
2022/06/10 00:35:39;;;;;;;;;;;16.80;74.10;;;;;;5045936;28;19994;-77
2022/06/10 00:38:06;;;;;;;;;;;16.80;74.20;;;;;;5046053;28;20360;-75
2022/06/10 00:40:37;;;;;;;;;;;16.80;74.20;;;;;;5046468;28;19959;-75
2022/06/10 00:43:03;;;;;;;;;;;16.80;74.30;;;;;;5050775;28;20408;-75
2022/06/10 00:45:53;;;;;;;;;;;16.70;74.20;;;;;;5045518;28;19966;-75
2022/06/10 00:48:20;;;;;;;;;;;16.70;74.30;;;;;;5049821;28;19936;-76
2022/06/10 00:50:47;;;;;;;;;;;16.70;74.30;;;;;;5050196;28;19929;-74
2022/06/10 00:53:16;;;;;;;;;;;16.60;74.30;;;;;;5045398;28;20646;-76
2022/06/10 00:55:43;;;;;;;;;;;16.60;74.40;;;;;;5046949;28;19925;-75
2022/06/10 00:58:15;;;;;;;;;;;16.60;74.50;;;;;;5047813;28;19928;-76
2022/06/10 01:00:42;;;;;;;;;;;16.60;74.60;;;;;;5049256;28;19936;-75
2022/06/10 01:03:10;;;;;;;;;;;16.60;74.80;;;;;;5047935;28;19925;-77
2022/06/10 01:05:36;;;;;;;;;;;16.50;74.80;;;;;;5047720;28;19924;-75
2022/06/10 01:08:04;;;;;;;;;;;16.50;74.60;;;;;;5047701;28;20415;-75
2022/06/10 01:10:36;;;;;;;;;;;16.50;74.70;;;;;;5048670;28;20351;-77
2022/06/10 01:13:07;;;;;;;;;;;16.50;74.60;;;;;;5046335;28;19955;-75
2022/06/10 01:15:36;;;;;;;;;;;16.40;74.70;;;;;;5046899;28;19932;-76
2022/06/10 01:18:12;;;;;;;;;;;16.40;74.80;;;;;;5047890;28;20392;-76
2022/06/10 01:20:44;;;;;;;;;;;16.40;74.90;;;;;;5047893;28;19928;-78
2022/06/10 01:23:22;;;;;;;;;;;16.40;75.00;;;;;;5051578;28;20015;-75
2022/06/10 01:26:07;;;;;;;;;;;16.30;75.10;;;;;;5052628;28;19935;-74
2022/06/10 01:28:44;;;;;;;;;;;16.30;75.10;;;;;;5011869;28;19935;-76
2022/06/10 01:31:22;;;;;;;;;;;16.30;75.20;;;;;;5043871;28;19929;-75
2022/06/10 01:34:00;;;;;;;;;;;16.20;75.20;;;;;;5045560;28;19946;-75
2022/06/10 01:36:29;;;;;;;;;;;16.20;75.40;;;;;;5048522;28;19924;-78
2022/06/10 01:38:59;;;;;;;;;;;16.20;75.30;;;;;;5049314;28;19929;-76
2022/06/10 01:41:30;;;;;;;;;;;16.20;75.50;;;;;;5047489;28;19932;-75
2022/06/10 01:44:00;;;;;;;;;;;16.20;75.40;;;;;;5048045;28;19927;-76
2022/06/10 01:46:30;;;;;;;;;;;16.10;75.50;;;;;;5047042;28;19936;-76
2022/06/10 01:49:00;;;;;;;;;;;16.10;75.70;;;;;;5045797;28;19933;-77
2022/06/10 01:51:31;;;;;;;;;;;16.10;75.70;;;;;;5051044;28;20631;-78
2022/06/10 01:53:59;;;;;;;;;;;16.10;75.80;;;;;;5047867;28;19936;-76
2022/06/10 01:56:27;;;;;;;;;;;16.00;75.80;;;;;;5046285;28;19943;-77
2022/06/10 01:58:57;;;;;;;;;;;16.00;75.80;;;;;;5048376;28;19929;-75
2022/06/10 02:01:27;;;;;;;;;;;16.00;75.80;;;;;;5044420;28;19933;-75
2022/06/10 02:03:57;;;;;;;;;;;15.90;76.00;;;;;;5045759;28;20434;-77
2022/06/10 02:06:26;;;;;;;;;;;16.00;76.10;;;;;;5045419;28;19929;-75
2022/06/10 02:08:55;;;;;;;;;;;15.90;75.80;;;;;;5045419;28;20278;-74
2022/06/10 02:11:23;;;;;;;;;;;15.90;76.00;;;;;;5046198;28;19925;-75
2022/06/10 02:13:52;;;;;;;;;;;15.90;76.10;;;;;;5045612;28;19932;-75
2022/06/10 02:16:21;;;;;;;;;;;15.90;76.10;;;;;;5039742;28;19933;-74
2022/06/10 02:18:50;;;;;;;;;;;15.90;76.10;;;;;;5040426;28;19951;-78
2022/06/10 02:21:20;;;;;;;;;;;15.80;76.10;;;;;;5040790;28;20652;-74
2022/06/10 02:23:49;;;;;;;;;;;15.80;76.00;;;;;;5042235;28;19972;-74
2022/06/10 02:26:17;;;;;;;;;;;15.80;76.10;;;;;;5041886;28;20007;-75
2022/06/10 02:28:45;;;;;;;;;;;15.70;75.80;;;;;;5040523;28;19937;-70
2022/06/10 02:31:14;;;;;;;;;;;15.70;75.90;;;;;;5039953;28;19936;-71
2022/06/10 02:33:40;;;;;;;;;;;15.70;75.90;;;;;;5037120;28;19933;-71
2022/06/10 02:36:11;;;;;;;;;;;15.70;75.80;;;;;;5039064;28;19928;-68
2022/06/10 02:38:45;;;;;;;;;;;15.70;75.90;;;;;;5038729;28;19932;-71
2022/06/10 02:41:17;;;;;;;;;;;15.70;75.80;;;;;;5042074;28;19928;-68
2022/06/10 02:43:48;;;;;;;;;;;15.60;75.80;;;;;;5039610;28;19936;-70
2022/06/10 02:46:19;;;;;;;;;;;15.60;75.70;;;;;;5039794;28;19943;-70
2022/06/10 02:48:49;;;;;;;;;;;15.60;76.00;;;;;;5034484;28;20518;-71
2022/06/10 02:51:16;;;;;;;;;;;15.60;75.90;;;;;;5035619;28;20007;-69
2022/06/10 02:53:45;;;;;;;;;;;15.60;75.90;;;;;;5036722;28;19932;-69
2022/06/10 02:56:16;;;;;;;;;;;15.60;75.70;;;;;;5040284;28;19929;-67
2022/06/10 03:01:31;;;;;;;;;;;15.50;75.70;;;;;;5038522;28;19932;-69
2022/06/10 03:04:06;;;;;;;;;;;15.50;75.90;;;;;;5037773;28;19936;-68
2022/06/10 03:06:36;;;;;;;;;;;15.50;76.00;;;;;;5038240;28;20305;-70
2022/06/10 03:09:08;;;;;;;;;;;15.50;75.90;;;;;;5040492;28;20022;-68
2022/06/10 03:11:38;;;;;;;;;;;15.50;76.10;;;;;;5037184;28;19933;-72
2022/06/10 03:14:08;;;;;;;;;;;15.50;76.10;;;;;;5039690;28;20408;-72
2022/06/10 03:16:41;;;;;;;;;;;15.40;76.10;;;;;;5040744;28;19936;-71
2022/06/10 03:19:15;;;;;;;;;;;15.40;76.30;;;;;;5041624;28;19932;-71
2022/06/10 03:21:51;;;;;;;;;;;15.40;76.40;;;;;;5041528;28;19967;-68
2022/06/10 03:24:25;;;;;;;;;;;15.40;76.40;;;;;;5037432;28;20063;-68
2022/06/10 03:26:54;;;;;;;;;;;15.40;76.50;;;;;;5037333;28;19929;-68
2022/06/10 03:29:26;;;;;;;;;;;15.40;76.50;;;;;;5040429;28;20719;-68
2022/06/10 03:31:55;;;;;;;;;;;15.30;76.50;;;;;;5037645;28;19935;-67
2022/06/10 03:34:24;;;;;;;;;;;15.40;76.70;;;;;;5039930;28;20002;-67
2022/06/10 03:36:52;;;;;;;;;;;15.30;76.60;;;;;;5035374;28;19937;-66
2022/06/10 03:39:22;;;;;;;;;;;15.30;76.70;;;;;;5042544;28;19929;-68
2022/06/10 03:41:55;;;;;;;;;;;15.30;76.80;;;;;;5041096;28;19939;-68
2022/06/10 03:44:22;;;;;;;;;;;15.30;76.90;;;;;;5044618;28;19928;-68
2022/06/10 03:46:50;;;;;;;;;;;15.30;76.90;;;;;;5043089;28;19929;-67
2022/06/10 03:49:20;;;;;;;;;;;15.30;77.00;;;;;;5043174;28;19940;-67
2022/06/10 03:51:47;;;;;;;;;;;15.20;77.00;;;;;;5044221;28;20332;-69
2022/06/10 03:54:19;;;;;;;;;;;15.30;77.10;;;;;;5044461;28;19929;-69
2022/06/10 03:56:48;;;;;;;;;;;15.20;77.20;;;;;;5043407;28;19936;-67
2022/06/10 03:59:15;;;;;;;;;;;15.20;77.10;;;;;;5041990;28;20397;-69
2022/06/10 04:01:41;;;;;;;;;;;15.20;77.20;;;;;;5043781;28;19929;-68
2022/06/10 04:04:08;;;;;;;;;;;15.20;77.30;;;;;;5040084;28;19932;-70
2022/06/10 04:06:35;;;;;;;;;;;15.20;77.30;;;;;;5044429;28;19929;-71
2022/06/10 04:09:01;;;;;;;;;;;15.10;77.30;;;;;;5044362;28;19928;-68
2022/06/10 04:11:28;;;;;;;;;;;15.10;77.40;;;;;;5042391;28;20412;-70
2022/06/10 04:13:56;;;;;;;;;;;15.10;77.40;;;;;;5043706;28;19936;-67
2022/06/10 04:16:22;;;;;;;;;;;15.10;77.40;;;;;;5044024;28;20710;-67
2022/06/10 04:18:49;;;;;;;;;;;15.10;77.60;;;;;;5046564;28;19925;-68
2022/06/10 04:21:15;;;;;;;;;;;15.10;77.60;;;;;;5049853;28;19990;-68
2022/06/10 04:23:42;;;;;;;;;;;15.10;77.70;;;;;;5043121;28;19929;-71
2022/06/10 04:26:09;;;;;;;;;;;15.10;77.70;;;;;;5048475;28;19933;-68
2022/06/10 04:28:35;;;;;;;;;;;15.00;77.70;;;;;;5041588;28;19936;-69
2022/06/10 04:31:04;;;;;;;;;;;15.00;77.80;;;;;;5042959;28;19928;-69
2022/06/10 04:33:33;;;;;;;;;;;15.00;77.90;;;;;;5036521;28;19929;-68
2022/06/10 04:36:00;;;;;;;;;;;15.00;77.80;;;;;;5044352;28;19930;-68
2022/06/10 04:38:26;;;;;;;;;;;15.00;77.90;;;;;;5044240;28;19940;-70
2022/06/10 04:40:53;;;;;;;;;;;15.00;77.90;;;;;;5044286;28;19947;-66
2022/06/10 04:43:20;;;;;;;;;;;15.00;78.00;;;;;;5042332;28;19955;-68
2022/06/10 04:45:49;;;;;;;;;;;15.00;78.00;;;;;;5043176;28;19932;-69
2022/06/10 04:48:17;;;;;;;;;;;14.90;78.00;;;;;;5037099;28;19937;-70
2022/06/10 04:50:45;;;;;;;;;;;14.90;78.10;;;;;;5043515;28;19935;-70
2022/06/10 04:53:11;;;;;;;;;;;14.90;77.90;;;;;;5042771;28;19953;-71
2022/06/10 04:55:38;;;;;;;;;;;14.90;77.90;;;;;;5042132;28;19991;-72
2022/06/10 04:58:05;;;;;;;;;;;14.90;78.10;;;;;;5040368;28;21106;-67
2022/06/10 05:00:33;;;;;;;;;;;14.90;78.10;;;;;;5043162;28;19928;-70
2022/06/10 05:02:59;;;;;;;;;;;14.90;78.00;;;;;;5040529;28;21086;-73
2022/06/10 05:05:28;;;;;;;;;;;14.90;78.00;;;;;;5042412;28;19959;-68
2022/06/10 05:07:55;;;;;;;;;;;14.90;78.00;;;;;;5043145;28;19986;-66
2022/06/10 05:10:22;;;;;;;;;;;14.80;78.10;;;;;;5042590;28;19939;-67
2022/06/10 05:12:49;;;;;;;;;;;14.80;78.90;;;;;;5036745;28;19937;-67
2022/06/10 05:15:19;;;;;;;;;;;14.80;79.40;;;;;;5036308;28;19935;-68
2022/06/10 05:17:45;;;;;;;;;;;14.80;79.60;;;;;;5037363;28;20042;-68
2022/06/10 05:20:15;;;;;;;;;;;14.80;79.60;;;;;;5045329;28;19936;-66
2022/06/10 05:22:43;;;;;;;;;;;14.80;79.50;;;;;;5039133;28;19944;-67
2022/06/10 05:25:10;;;;;;;;;;;14.80;79.50;;;;;;5045223;28;19928;-68
2022/06/10 05:27:37;;;;;;;;;;;14.80;79.30;;;;;;5042623;28;19963;-70
2022/06/10 05:30:04;;;;;;;;;;;14.80;79.10;;;;;;5042781;28;19932;-67
2022/06/10 05:32:30;;;;;;;;;;;14.80;79.80;;;;;;5038382;28;20401;-67
2022/06/10 05:34:57;;;;;;;;;;;14.80;78.90;;;;;;5038774;28;19940;-68
2022/06/10 05:37:25;;;;;;;;;;;14.80;78.80;;;;;;5044365;28;19929;-68
2022/06/10 05:39:53;;;;;;;;;;;14.80;78.80;;;;;;5042302;28;19929;-67
2022/06/10 05:42:20;;;;;;;;;;;14.90;78.80;;;;;;5040403;28;19928;-69
2022/06/10 05:44:48;;;;;;;;;;;14.90;78.70;;;;;;5043144;28;19932;-68
2022/06/10 05:47:16;;;;;;;;;;;14.90;78.50;;;;;;5040599;28;19924;-68
2022/06/10 05:49:44;;;;;;;;;;;14.90;78.40;;;;;;5041849;28;19955;-69
2022/06/10 05:52:11;;;;;;;;;;;14.90;78.80;;;;;;5042827;28;20815;-66
2022/06/10 05:54:38;;;;;;;;;;;14.90;78.30;;;;;;5042281;28;20019;-69
2022/06/10 05:57:06;;;;;;;;;;;15.00;78.20;;;;;;5039191;28;19925;-68
2022/06/10 05:59:33;;;;;;;;;;;15.00;78.20;;;;;;5042752;28;19929;-69
2022/06/10 06:02:00;;;;;;;;;;;15.00;78.10;;;;;;5041841;28;19929;-70
2022/06/10 06:04:26;;;;;;;;;;;15.00;78.00;;;;;;5040736;28;19939;-70
2022/06/10 06:06:53;;;;;;;;;;;15.00;77.90;;;;;;5040733;28;19948;-69
2022/06/10 06:09:20;;;;;;;;;;;15.10;78.00;;;;;;5040856;28;19933;-68
2022/06/10 06:11:48;;;;;;;;;;;15.00;77.90;;;;;;5042027;28;19937;-67
2022/06/10 06:14:17;;;;;;;;;;;15.10;78.20;;;;;;5040185;28;20371;-70
2022/06/10 06:16:45;;;;;;;;;;;15.00;77.70;;;;;;5041773;28;19986;-70
2022/06/10 06:19:11;;;;;;;;;;;15.10;77.80;;;;;;5037714;28;19933;-68
2022/06/10 06:21:38;;;;;;;;;;;15.10;77.70;;;;;;5036169;28;20304;-70
2022/06/10 06:24:05;;;;;;;;;;;15.10;77.70;;;;;;5038669;28;20462;-70
2022/06/10 06:26:31;;;;;;;;;;;15.10;77.70;;;;;;5040984;28;19986;-72
2022/06/10 06:28:58;;;;;;;;;;;15.20;78.60;;;;;;5039764;28;19940;-70
2022/06/10 06:31:26;;;;;;;;;;;15.20;77.80;;;;;;5039089;28;19936;-69
2022/06/10 06:33:52;;;;;;;;;;;15.20;77.90;;;;;;5035022;28;20467;-67
2022/06/10 06:36:20;;;;;;;;;;;15.20;78.00;;;;;;5040283;28;19932;-67
2022/06/10 06:38:47;;;;;;;;;;;15.20;78.00;;;;;;5041246;28;19929;-68
2022/06/10 06:41:13;;;;;;;;;;;15.20;78.00;;;;;;5041834;28;19929;-70
2022/06/10 06:43:40;;;;;;;;;;;15.30;78.00;;;;;;5034819;28;19959;-68
2022/06/10 06:46:06;;;;;;;;;;;15.30;78.00;;;;;;5039888;28;19925;-71
2022/06/10 06:48:35;;;;;;;;;;;15.30;77.90;;;;;;5040564;28;19925;-69
2022/06/10 06:51:02;;;;;;;;;;;15.30;77.90;;;;;;5041981;28;20154;-70
2022/06/10 06:53:28;;;;;;;;;;;15.40;78.10;;;;;;5041904;28;19933;-70
2022/06/10 06:55:56;;;;;;;;;;;15.30;78.00;;;;;;5039690;28;19937;-68
2022/06/10 06:58:23;;;;;;;;;;;15.40;78.10;;;;;;5042147;28;19933;-68
2022/06/10 07:00:49;;;;;;;;;;;15.40;78.10;;;;;;5039807;28;19928;-68
2022/06/10 07:03:17;;;;;;;;;;;15.50;78.20;;;;;;5032218;28;19935;-68
2022/06/10 07:05:45;;;;;;;;;;;15.50;78.10;;;;;;5036085;28;19940;-72
2022/06/10 07:08:12;;;;;;;;;;;15.40;78.00;;;;;;5040204;28;19929;-67
2022/06/10 07:10:39;;;;;;;;;;;15.50;78.10;;;;;;5037196;28;19940;-72
2022/06/10 07:13:06;;;;;;;;;;;15.50;78.00;;;;;;5036782;28;19928;-73
2022/06/10 07:15:32;;;;;;;;;;;15.60;78.10;;;;;;5038556;28;19936;-68
2022/06/10 07:17:59;;;;;;;;;;;15.60;78.30;;;;;;5043381;28;19928;-71
2022/06/10 07:20:27;;;;;;;;;;;15.60;78.20;;;;;;5037790;28;20605;-69
2022/06/10 07:22:56;;;;;;;;;;;15.60;78.20;;;;;;5040298;28;19944;-67
2022/06/10 07:25:22;;;;;;;;;;;15.70;78.30;;;;;;5040078;28;19928;-68
2022/06/10 07:27:52;;;;;;;;;;;15.70;78.20;;;;;;5040035;28;19929;-68
2022/06/10 07:30:20;;;;;;;;;;;15.70;78.10;;;;;;5039973;28;19959;-68
2022/06/10 07:32:47;;;;;;;;;;;15.70;78.00;;;;;;5035535;28;19971;-67
2022/06/10 07:35:14;;;;;;;;;;;15.70;78.00;;;;;;5039524;28;20597;-70
2022/06/10 07:37:41;;;;;;;;;;;15.80;78.20;;;;;;5042949;28;20313;-66
2022/06/10 07:41:56;;;;;;;;;;;15.80;78.10;;;;;;5041728;28;20804;-72
2022/06/10 07:42:55;;;;;;;;;;;15.80;78.10;;;;;;5038429;28;19929;-69
2022/06/10 07:45:22;;;;;;;;;;;15.90;77.90;;;;;;5040475;28;19924;-68
2022/06/10 07:47:48;;;;;;;;;;;15.90;78.10;;;;;;5040099;28;20004;-66
2022/06/10 07:50:15;;;;;;;;;;;15.90;77.90;;;;;;5041140;28;19982;-69
2022/06/10 07:52:41;;;;;;;;;;;15.90;77.90;;;;;;5041179;28;19936;-68
2022/06/10 07:55:10;;;;;;;;;;;16.00;77.80;;;;;;5038646;28;19933;-67
2022/06/10 07:57:36;;;;;;;;;;;16.00;77.80;;;;;;5037089;28;19967;-71
2022/06/10 08:00:04;;;;;;;;;;;16.00;77.70;;;;;;5039351;28;19935;-68
2022/06/10 08:02:30;;;;;;;;;;;16.10;77.70;;;;;;5040178;28;19933;-70
2022/06/10 08:04:57;;;;;;;;;;;16.10;77.60;;;;;;5037681;28;19935;-70
2022/06/10 08:07:23;;;;;;;;;;;16.10;77.50;;;;;;5041939;28;19936;-67
2022/06/10 08:09:50;;;;;;;;;;;16.20;77.60;;;;;;5040487;28;19936;-66
2022/06/10 08:12:18;;;;;;;;;;;16.20;77.50;;;;;;5039672;28;19929;-68
2022/06/10 08:14:44;;;;;;;;;;;16.20;77.60;;;;;;5039045;28;19929;-70
2022/06/10 08:17:11;;;;;;;;;;;16.20;77.50;;;;;;5038310;28;19928;-68
2022/06/10 08:19:39;;;;;;;;;;;16.30;77.50;;;;;;5042565;28;20344;-71
2022/06/10 08:24:50;;;;;;;;;;;16.40;77.40;;;;;;5038647;28;19932;-71
2022/06/10 08:27:18;;;;;;;;;;;16.40;77.30;;;;;;5041818;28;19932;-66
2022/06/10 08:29:45;;;;;;;;;;;16.50;77.20;;;;;;5043688;28;19940;-68
2022/06/10 08:32:11;;;;;;;;;;;16.50;77.10;;;;;;5041055;28;19974;-68
2022/06/10 08:34:41;;;;;;;;;;;16.50;77.10;;;;;;5036712;28;19944;-71
2022/06/10 08:37:08;;;;;;;;;;;16.60;76.90;;;;;;5042872;28;19932;-71
2022/06/10 08:39:35;;;;;;;;;;;16.60;76.90;;;;;;5044330;28;20351;-70
2022/06/10 08:42:07;;;;;;;;;;;16.60;76.70;;;;;;5041557;28;19952;-68
2022/06/10 08:44:38;;;;;;;;;;;16.70;76.60;;;;;;5042384;28;20412;-68
2022/06/10 08:47:16;;;;;;;;;;;16.70;76.40;;;;;;5039153;28;19929;-68
2022/06/10 08:49:49;;;;;;;;;;;16.80;76.20;;;;;;5039095;28;19938;-67
2022/06/10 08:52:18;;;;;;;;;;;16.80;76.00;;;;;;5042645;28;19929;-67
2022/06/10 08:54:48;;;;;;;;;;;16.80;75.90;;;;;;5041754;28;19974;-68
2022/06/10 08:57:21;;;;;;;;;;;16.90;75.70;;;;;;5041648;28;19940;-68
2022/06/10 08:59:50;;;;;;;;;;;16.90;75.50;;;;;;5045668;28;19936;-68
2022/06/10 09:02:23;;;;;;;;;;;16.90;75.20;;;;;;5040712;28;19928;-68
2022/06/10 09:04:54;;;;;;;;;;;17.00;75.10;;;;;;5042598;28;19968;-67
2022/06/10 09:07:25;;;;;;;;;;;17.00;75.00;;;;;;5041602;28;19929;-69
2022/06/10 09:09:53;;;;;;;;;;;17.00;74.80;;;;;;5043202;28;20710;-71
2022/06/10 09:12:22;;;;;;;;;;;17.10;74.80;;;;;;5036875;28;19929;-67
2022/06/10 09:14:50;;;;;;;;;;;17.20;74.60;;;;;;5041226;28;19933;-67
2022/06/10 09:17:19;;;;;;;;;;;17.20;74.50;;;;;;5043366;28;19929;-68
2022/06/10 09:19:51;;;;;;;;;;;17.20;74.20;;;;;;5039985;28;19982;-70
2022/06/10 09:22:24;;;;;;;;;;;17.20;73.90;;;;;;5042112;28;20152;-68
2022/06/10 09:24:55;;;;;;;;;;;17.30;73.90;;;;;;5043311;28;19928;-68
2022/06/10 09:27:26;;;;;;;;;;;17.30;73.80;;;;;;5041420;28;19929;-67
2022/06/10 09:29:56;;;;;;;;;;;17.40;73.70;;;;;;5044149;28;19924;-66
2022/06/10 09:32:26;;;;;;;;;;;17.50;73.50;;;;;;5035161;28;19933;-68
2022/06/10 09:34:56;;;;;;;;;;;17.50;73.10;;;;;;5041122;28;19970;-67
2022/06/10 09:37:28;;;;;;;;;;;17.50;72.80;;;;;;5036512;28;20398;-67
2022/06/10 09:42:50;;;;;;;;;;;17.60;72.30;;;;;;5037888;28;19959;-71
2022/06/10 09:45:23;;;;;;;;;;;17.70;72.40;;;;;;5040511;28;19928;-67
2022/06/10 09:47:55;;;;;;;;;;;17.80;72.20;;;;;;5039368;28;20016;-67
2022/06/10 09:50:26;;;;;;;;;;;17.90;71.70;;;;;;5042411;28;19979;-67
2022/06/10 09:53:04;;;;;;;;;;;18.00;70.80;;;;;;5042130;28;20023;-68
2022/06/10 09:55:44;;;;;;;;;;;18.00;70.50;;;;;;5036866;28;19929;-68
2022/06/10 09:58:21;;;;;;;;;;;18.10;70.20;;;;;;5042321;28;19928;-66
2022/06/10 10:00:53;;;;;;;;;;;18.10;69.90;;;;;;5038312;28;19948;-67
2022/06/10 10:03:31;;;;;;;;;;;18.20;69.60;;;;;;5040259;28;19929;-70
2022/06/10 10:06:05;;;;;;;;;;;18.30;69.10;;;;;;5042613;28;19935;-72
2022/06/10 10:08:34;;;;;;;;;;;18.40;69.20;;;;;;5047066;28;19925;-68
2022/06/10 10:11:03;;;;;;;;;;;18.40;68.90;;;;;;5034896;28;19933;-69
2022/06/10 10:13:35;;;;;;;;;;;18.50;68.50;;;;;;5040846;28;20559;-68
2022/06/10 10:16:08;;;;;;;;;;;18.50;68.60;;;;;;5039982;28;19929;-68
2022/06/10 10:18:45;;;;;;;;;;;18.60;68.40;;;;;;5041386;28;20027;-67
2022/06/10 10:21:13;;;;;;;;;;;18.70;68.00;;;;;;5041076;28;20019;-67
2022/06/10 10:23:40;;;;;;;;;;;18.80;67.80;;;;;;5041672;28;19940;-69
2022/06/10 10:26:19;;;;;;;;;;;18.90;67.50;;;;;;5043007;28;19928;-69
2022/06/10 10:28:47;;;;;;;;;;;19.00;67.30;;;;;;5039980;28;20051;-70
2022/06/10 10:31:17;;;;;;;;;;;19.10;67.40;;;;;;5039744;28;20453;-70
2022/06/10 10:33:44;;;;;;;;;;;19.10;67.20;;;;;;5039976;28;19933;-69
2022/06/10 10:36:16;;;;;;;;;;;19.20;66.90;;;;;;5040693;28;19936;-66
2022/06/10 10:38:44;;;;;;;;;;;19.30;66.30;;;;;;5040811;28;19933;-67
2022/06/10 10:41:18;;;;;;;;;;;19.30;65.80;;;;;;5040024;28;20038;-68
2022/06/10 10:43:46;;;;;;;;;;;19.40;65.70;;;;;;5038990;28;19929;-69
2022/06/10 10:46:29;;;;;;;;;;;19.50;65.40;;;;;;5040663;28;20470;-67
2022/06/10 10:48:57;;;;;;;;;;;19.60;65.50;;;;;;5040078;28;19929;-67
2022/06/10 10:51:25;;;;;;;;;;;19.70;65.70;;;;;;5038331;28;19925;-68
2022/06/10 10:53:54;;;;;;;;;;;19.70;65.60;;;;;;5039988;28;20015;-67
2022/06/10 10:56:29;;;;;;;;;;;19.80;65.50;;;;;;5036084;28;19937;-68
2022/06/10 10:58:56;;;;;;;;;;;19.90;65.00;;;;;;5038313;28;19933;-67
2022/06/10 11:01:46;;;;;;;;;;;20.00;64.50;;;;;;5038467;28;19940;-67
2022/06/10 11:04:16;;;;;;;;;;;20.10;64.40;;;;;;5034748;28;20392;-71
2022/06/10 11:06:43;;;;;;;;;;;20.10;63.00;;;;;;5038877;28;19928;-67
2022/06/10 11:09:16;;;;;;;;;;;20.20;63.50;;;;;;5042733;28;21355;-67
2022/06/10 11:11:43;;;;;;;;;;;20.30;63.30;;;;;;5039343;28;19936;-66
2022/06/10 11:14:19;;;;;;;;;;;20.40;63.30;;;;;;5032757;28;19944;-67
2022/06/10 11:17:00;;;;;;;;;;;20.40;62.70;;;;;;5038981;28;20384;-67
2022/06/10 11:19:39;;;;;;;;;;;20.50;62.30;;;;;;5040119;28;19929;-70
2022/06/10 11:22:10;;;;;;;;;;;20.60;62.40;;;;;;5040521;28;19929;-66
2022/06/10 11:24:38;;;;;;;;;;;20.60;61.90;;;;;;5041129;28;19929;-69
2022/06/10 11:27:18;;;;;;;;;;;20.70;62.00;;;;;;5038404;28;19933;-70
2022/06/10 11:29:45;;;;;;;;;;;20.80;61.90;;;;;;5035905;28;19929;-70
2022/06/10 11:32:20;;;;;;;;;;;20.80;61.50;;;;;;5038238;28;19938;-66
2022/06/10 11:34:54;;;;;;;;;;;20.90;61.20;;;;;;5036392;28;19936;-67
2022/06/10 11:37:23;;;;;;;;;;;21.00;60.00;;;;;;5039612;28;19933;-67
2022/06/10 11:39:56;;;;;;;;;;;21.00;59.90;;;;;;5040461;28;19937;-67
2022/06/10 11:42:27;;;;;;;;;;;21.10;59.90;;;;;;5037518;28;20027;-67
2022/06/10 11:44:57;;;;;;;;;;;21.20;60.10;;;;;;5035136;28;19929;-67
2022/06/10 11:47:28;;;;;;;;;;;21.20;60.30;;;;;;5035728;28;20012;-69
2022/06/10 11:49:56;;;;;;;;;;;21.30;59.40;;;;;;5036932;28;19951;-66
2022/06/10 11:52:26;;;;;;;;;;;21.40;59.40;;;;;;5038546;28;20202;-67
2022/06/10 11:54:56;;;;;;;;;;;21.50;59.30;;;;;;5039261;28;20448;-67
2022/06/10 12:00:15;;;;;;;;;;;21.60;58.80;;;;;;5040200;28;19970;-68
2022/06/10 12:02:46;;;;;;;;;;;21.70;59.00;;;;;;5038413;28;19929;-66
2022/06/10 12:05:17;;;;;;;;;;;21.70;59.00;;;;;;5040630;28;19933;-66
2022/06/10 12:07:45;;;;;;;;;;;21.80;59.00;;;;;;5047212;28;20074;-68
2022/06/10 12:10:16;;;;;;;;;;;21.90;58.50;;;;;;5042563;28;19972;-67
2022/06/10 12:12:43;;;;;;;;;;;21.90;57.80;;;;;;5040712;28;19974;-69
2022/06/10 12:15:16;;;;;;;;;;;22.00;57.50;;;;;;5041142;28;20686;-68
2022/06/10 12:17:46;;;;;;;;;;;22.00;57.80;;;;;;5042930;28;19925;-68
2022/06/10 12:20:16;;;;;;;;;;;22.10;57.90;;;;;;5038332;28;19933;-68
2022/06/10 12:22:42;;;;;;;;;;;22.20;57.60;;;;;;5040792;28;19960;-70
2022/06/10 12:25:15;;;;;;;;;;;22.20;57.00;;;;;;5044786;28;19939;-69
2022/06/10 12:27:45;;;;;;;;;;;22.30;57.10;;;;;;5043692;28;19928;-67
2022/06/10 12:30:14;;;;;;;;;;;22.40;56.60;;;;;;5043789;28;19933;-68
2022/06/10 12:32:45;;;;;;;;;;;22.40;57.20;;;;;;5040902;28;19967;-68
2022/06/10 12:35:17;;;;;;;;;;;22.40;56.90;;;;;;5041930;28;19936;-67
2022/06/10 12:37:46;;;;;;;;;;;22.60;56.80;;;;;;5040596;28;19954;-68
2022/06/10 12:40:15;;;;;;;;;;;22.60;56.10;;;;;;5039866;28;19933;-68
2022/06/10 12:42:46;;;;;;;;;;;22.60;56.20;;;;;;5041398;28;20424;-68
2022/06/10 12:45:17;;;;;;;;;;;22.60;56.20;;;;;;5041704;28;19929;-69
2022/06/10 12:47:44;;;;;;;;;;;22.70;55.70;;;;;;5042653;28;20690;-70
2022/06/10 12:50:20;;;;;;;;;;;22.70;55.90;;;;;;5040129;28;20044;-68
2022/06/10 12:52:59;;;;;;;;;;;22.70;55.50;;;;;;5040665;28;19928;-66
2022/06/10 12:55:27;;;;;;;;;;;22.80;55.80;;;;;;5042507;28;20396;-67
2022/06/10 12:57:55;;;;;;;;;;;22.80;55.60;;;;;;5040093;28;19925;-67
2022/06/10 13:00:36;;;;;;;;;;;22.90;55.90;;;;;;5042173;28;19929;-69
2022/06/10 13:03:24;;;;;;;;;;;22.90;55.70;;;;;;5041773;28;21893;-68
2022/06/10 13:05:52;;;;;;;;;;;23.00;55.60;;;;;;5041287;28;20007;-69
2022/06/10 13:08:44;;;;;;;;;;;23.10;55.50;;;;;;5043262;28;19935;-67
2022/06/10 13:11:12;;;;;;;;;;;23.10;55.70;;;;;;5024631;28;20909;-66
2022/06/10 13:13:39;;;;;;;;;;;23.20;54.70;;;;;;5033670;28;19964;-70
2022/06/10 13:16:40;;;;;;;;;;;23.20;54.80;;;;;;5041382;28;19936;-70
2022/06/10 13:19:22;;;;;;;;;;;23.20;55.10;;;;;;4982452;28;20024;-72
2022/06/10 13:21:50;;;;;;;;;;;23.30;55.20;;;;;;4977184;28;19933;-67
2022/06/10 13:24:16;;;;;;;;;;;23.30;54.90;;;;;;5012635;28;20725;-69
2022/06/10 13:26:43;;;;;;;;;;;23.30;54.70;;;;;;5045081;28;20389;-71
2022/06/10 13:29:12;;;;;;;;;;;23.40;54.50;;;;;;5038615;28;19976;-69
2022/06/10 13:31:46;;;;;;;;;;;23.40;54.00;;;;;;5043586;28;19951;-73
2022/06/10 13:34:18;;;;;;;;;;;23.50;54.10;;;;;;5042326;28;19939;-68
2022/06/10 13:36:48;;;;;;;;;;;23.50;53.40;;;;;;5044331;28;20300;-68
2022/06/10 13:39:20;;;;;;;;;;;23.60;54.00;;;;;;5041738;28;19928;-70
2022/06/10 13:41:52;;;;;;;;;;;23.60;53.20;;;;;;5041907;28;19997;-67
2022/06/10 13:44:31;;;;;;;;;;;23.60;53.10;;;;;;5035893;28;19929;-67
2022/06/10 13:46:58;;;;;;;;;;;23.80;53.50;;;;;;5042309;28;19929;-71
2022/06/10 13:49:46;;;;;;;;;;;23.80;53.70;;;;;;5044428;28;19972;-68
2022/06/10 13:52:25;;;;;;;;;;;24.00;53.30;;;;;;5042077;28;19931;-72
2022/06/10 13:54:53;;;;;;;;;;;24.10;49.80;;;;;;5039924;28;20405;-68
2022/06/10 13:57:21;;;;;;;;;;;24.80;44.80;;;;;;5040736;28;19940;-72
2022/06/10 13:59:57;;;;;;;;;;;25.10;45.20;;;;;;5037957;28;19929;-70
2022/06/10 14:02:27;;;;;;;;;;;25.30;45.60;;;;;;5041435;28;19932;-69
2022/06/10 14:04:54;;;;;;;;;;;25.50;45.90;;;;;;5041281;28;19929;-70
2022/06/10 14:07:23;;;;;;;;;;;25.70;46.00;;;;;;5043163;28;19936;-70
2022/06/10 14:09:50;;;;;;;;;;;25.80;46.20;;;;;;5042391;28;19955;-72
2022/06/10 14:12:20;;;;;;;;;;;26.00;46.50;;;;;;5039302;28;19925;-72
2022/06/10 14:14:48;;;;;;;;;;;26.10;46.00;;;;;;5042359;28;19978;-70
2022/06/10 14:17:16;;;;;;;;;;;26.20;46.00;;;;;;5040352;28;19935;-74
2022/06/10 14:19:46;;;;;;;;;;;26.30;46.20;;;;;;5040147;28;19929;-71
2022/06/10 14:22:18;;;;;;;;;;;26.40;47.00;;;;;;5039326;28;19935;-69
2022/06/10 14:25:04;;;;;;;;;;;26.50;46.50;;;;;;5039687;28;19971;-71
2022/06/10 14:27:34;;;;;;;;;;;26.60;46.50;;;;;;5039538;28;19932;-70
2022/06/10 14:30:02;;;;;;;;;;;26.70;46.40;;;;;;5041732;28;19933;-72
2022/06/10 14:32:30;;;;;;;;;;;26.80;46.50;;;;;;5039771;28;20563;-68
2022/06/10 14:34:58;;;;;;;;;;;26.90;46.40;;;;;;5037096;28;19928;-73
2022/06/10 14:37:30;;;;;;;;;;;26.90;46.00;;;;;;5039510;28;20454;-66
2022/06/10 14:40:12;;;;;;;;;;;27.00;46.30;;;;;;5039329;28;19956;-69
2022/06/10 14:42:41;;;;;;;;;;;27.10;46.80;;;;;;5040571;28;19932;-71